createdAt,value
2023-02-11T00:00:08.248Z,3.86
2023-02-11T00:03:16.202Z,3.85
2023-02-11T00:06:23.602Z,3.88
2023-02-11T00:09:31.968Z,3.89
2023-02-11T00:12:39.461Z,3.92
2023-02-11T00:15:46.980Z,3.96
2023-02-11T00:18:54.776Z,3.98
2023-02-11T00:22:02.160Z,4.01
2023-02-11T00:25:09.407Z,4.03
2023-02-11T00:28:17.078Z,4.03
2023-02-11T00:31:24.508Z,4.06
2023-02-11T00:34:32.053Z,4.14
2023-02-11T00:37:39.759Z,4.19
2023-02-11T00:40:46.848Z,4.21
2023-02-11T00:43:54.228Z,4.21
2023-02-11T00:47:02.279Z,4.25
2023-02-11T00:50:09.315Z,4.24
2023-02-11T00:53:17.050Z,4.22
2023-02-11T00:56:24.872Z,4.25
2023-02-11T00:59:32.097Z,4.29
2023-02-11T01:02:40.325Z,4.33
2023-02-11T01:05:48.206Z,4.33
2023-02-11T01:08:55.584Z,4.34
2023-02-11T01:12:03.373Z,4.37
2023-02-11T01:15:10.716Z,4.39
2023-02-11T01:18:18.430Z,4.47
2023-02-11T01:21:26.209Z,4.51
2023-02-11T01:24:33.696Z,4.58
2023-02-11T01:27:41.158Z,4.62
2023-02-11T01:30:48.973Z,4.69
2023-02-11T01:33:58.118Z,4.72
2023-02-11T01:37:05.578Z,4.79
2023-02-11T01:40:13.207Z,4.91
2023-02-11T01:43:21.296Z,5.02
2023-02-11T01:46:28.450Z,5.14
2023-02-11T01:49:36.679Z,5.28
2023-02-11T01:52:44.462Z,5.37
2023-02-11T01:55:51.744Z,5.41
2023-02-11T01:58:59.482Z,5.48
2023-02-11T02:02:06.842Z,5.53
2023-02-11T02:05:14.288Z,5.53
2023-02-11T02:08:22.064Z,5.55
2023-02-11T02:11:29.855Z,5.59
2023-02-11T02:14:37.432Z,5.60
2023-02-11T02:17:45.619Z,5.60
2023-02-11T02:20:53.238Z,5.63
2023-02-11T02:24:00.752Z,5.60
2023-02-11T02:27:08.040Z,5.63
2023-02-11T02:30:16.405Z,5.64
2023-02-11T02:33:23.965Z,5.67
2023-02-11T02:36:31.505Z,5.70
2023-02-11T02:39:39.682Z,5.71
2023-02-11T02:42:46.981Z,5.70
2023-02-11T02:45:54.574Z,5.67
2023-02-11T02:49:02.156Z,5.66
2023-02-11T02:52:09.197Z,5.70
2023-02-11T02:55:16.787Z,5.68
2023-02-11T02:58:24.104Z,5.67
2023-02-11T03:01:31.594Z,5.68
2023-02-11T03:04:39.260Z,5.67
2023-02-11T03:07:47.045Z,5.68
2023-02-11T03:10:54.500Z,5.70
2023-02-11T03:14:01.957Z,5.68
2023-02-11T03:17:10.833Z,5.67
2023-02-11T03:20:18.322Z,5.68
2023-02-11T03:23:26.502Z,5.67
2023-02-11T03:26:34.230Z,5.68
2023-02-11T03:29:41.847Z,5.70
2023-02-11T03:32:49.996Z,5.68
2023-02-11T03:35:58.117Z,5.64
2023-02-11T03:39:05.255Z,5.64
2023-02-11T03:42:13.054Z,5.66
2023-02-11T03:45:20.755Z,5.67
2023-02-11T03:48:28.685Z,5.67
2023-02-11T03:51:36.488Z,5.68
2023-02-11T03:54:44.028Z,5.71
2023-02-11T03:57:51.981Z,5.71
2023-02-11T04:00:59.219Z,5.71
2023-02-11T04:04:06.548Z,5.71
2023-02-11T04:07:15.146Z,5.73
2023-02-11T04:10:22.250Z,5.73
2023-02-11T04:13:30.419Z,5.71
2023-02-11T04:16:37.856Z,5.71
2023-02-11T04:19:45.256Z,5.71
2023-02-11T04:22:52.984Z,5.68
2023-02-11T04:26:00.424Z,5.67
2023-02-11T04:29:08.085Z,5.66
2023-02-11T04:32:15.848Z,5.63
2023-02-11T04:35:23.617Z,5.63
2023-02-11T04:38:31.274Z,5.60
2023-02-11T04:41:38.700Z,5.59
2023-02-11T04:44:46.505Z,5.57
2023-02-11T04:47:53.878Z,5.55
2023-02-11T04:51:01.491Z,5.53
2023-02-11T04:54:09.459Z,5.50
2023-02-11T04:57:16.976Z,5.50
2023-02-11T05:00:24.827Z,5.48
2023-02-11T05:03:32.266Z,5.46
2023-02-11T05:06:39.445Z,5.43
2023-02-11T05:09:47.495Z,5.43
2023-02-11T05:12:56.170Z,5.43
2023-02-11T05:16:03.349Z,5.43
2023-02-11T05:19:11.345Z,5.41
2023-02-11T05:22:19.232Z,5.40
2023-02-11T05:25:26.324Z,5.40
2023-02-11T05:28:34.266Z,5.40
2023-02-11T05:31:41.662Z,5.38
2023-02-11T05:34:49.537Z,5.40
2023-02-11T05:37:57.666Z,5.38
2023-02-11T05:41:04.810Z,5.40
2023-02-11T05:44:13.076Z,5.41
2023-02-11T05:47:20.932Z,5.41
2023-02-11T05:50:28.473Z,5.43
2023-02-11T05:53:35.979Z,5.41
2023-02-11T05:56:44.995Z,5.43
2023-02-11T05:59:52.994Z,5.45
2023-02-11T06:03:00.697Z,5.46
2023-02-11T06:06:08.274Z,5.46
2023-02-11T06:09:16.368Z,5.49
2023-02-11T06:12:23.731Z,5.53
2023-02-11T06:15:31.584Z,5.55
2023-02-11T06:18:39.578Z,5.56
2023-02-11T06:21:46.753Z,5.56
2023-02-11T06:25:01.619Z,5.59
2023-02-11T06:27:59.682Z,5.59
2023-02-11T06:31:07.569Z,5.60
2023-02-11T06:34:15.634Z,5.64
2023-02-11T06:37:23.251Z,5.67
2023-02-11T06:40:31.159Z,5.68
2023-02-11T06:43:38.997Z,5.68
2023-02-11T06:46:46.494Z,5.70
2023-02-11T06:49:54.191Z,5.74
2023-02-11T06:53:01.894Z,5.77
2023-02-11T06:56:09.465Z,5.82
2023-02-11T06:59:16.458Z,5.83
2023-02-11T07:02:23.614Z,5.86
2023-02-11T07:05:31.026Z,5.88
2023-02-11T07:08:38.236Z,5.89
2023-02-11T07:11:45.294Z,5.92
2023-02-11T07:14:52.603Z,5.95
2023-02-11T07:17:59.513Z,5.96
2023-02-11T07:21:07.664Z,6.00
2023-02-11T07:24:15.822Z,6.00
2023-02-11T07:27:23.310Z,6.01
2023-02-11T07:30:30.741Z,6.01
2023-02-11T07:33:38.538Z,6.03
2023-02-11T07:36:46.697Z,6.04
2023-02-11T07:39:54.214Z,6.07
2023-02-11T07:43:01.738Z,6.10
2023-02-11T07:46:09.270Z,6.13
2023-02-11T07:49:17.876Z,6.14
2023-02-11T07:52:26.286Z,6.19
2023-02-11T07:55:33.825Z,6.19
2023-02-11T07:58:41.626Z,6.19
2023-02-11T08:01:49.133Z,6.22
2023-02-11T08:04:56.269Z,6.25
2023-02-11T08:08:03.183Z,6.28
2023-02-11T08:11:10.955Z,6.32
2023-02-11T08:14:18.156Z,6.30
2023-02-11T08:17:24.997Z,6.33
2023-02-11T08:20:32.468Z,6.36
2023-02-11T08:23:39.664Z,6.36
2023-02-11T08:26:46.953Z,6.40
2023-02-11T08:29:54.761Z,6.43
2023-02-11T08:33:02.410Z,6.47
2023-02-11T08:36:09.848Z,6.47
2023-02-11T08:39:19.534Z,6.50
2023-02-11T08:42:28.025Z,6.51
2023-02-11T08:45:35.643Z,6.56
2023-02-11T08:48:43.320Z,6.58
2023-02-11T08:51:51.071Z,6.58
2023-02-11T08:54:58.358Z,6.59
2023-02-11T08:58:05.729Z,6.59
2023-02-11T09:01:13.016Z,6.65
2023-02-11T09:04:19.979Z,6.66
2023-02-11T09:07:27.582Z,6.69
2023-02-11T09:10:34.584Z,6.71
2023-02-11T09:13:41.748Z,6.73
2023-02-11T09:16:49.577Z,6.73
2023-02-11T09:19:56.841Z,6.77
2023-02-11T09:23:04.379Z,6.77
2023-02-11T09:26:12.278Z,6.77
2023-02-11T09:29:19.831Z,6.77
2023-02-11T09:32:26.959Z,6.76
2023-02-11T09:35:34.648Z,6.76
2023-02-11T09:38:42.036Z,6.73
2023-02-11T09:41:49.498Z,6.77
2023-02-11T09:44:56.720Z,6.77
2023-02-11T09:48:06.233Z,6.77
2023-02-11T09:51:13.688Z,6.77
2023-02-11T09:54:21.092Z,6.77
2023-02-11T09:57:29.424Z,6.80
2023-02-11T10:00:36.501Z,6.83
2023-02-11T10:03:43.920Z,6.84
2023-02-11T10:06:51.462Z,6.87
2023-02-11T10:09:58.419Z,6.89
2023-02-11T10:13:06.301Z,6.91
2023-02-11T10:16:13.651Z,6.94
2023-02-11T10:19:21.398Z,6.91
2023-02-11T10:22:30.583Z,6.89
2023-02-11T10:25:38.206Z,6.87
2023-02-11T10:28:45.527Z,6.94
2023-02-11T10:31:53.383Z,6.94
2023-02-11T10:35:00.524Z,6.95
2023-02-11T10:38:07.594Z,6.95
2023-02-11T10:41:15.061Z,6.94
2023-02-11T10:44:22.439Z,6.90
2023-02-11T10:47:29.934Z,6.91
2023-02-11T10:50:37.019Z,6.91
2023-02-11T10:53:44.167Z,6.97
2023-02-11T10:56:51.698Z,6.98
2023-02-11T10:59:58.704Z,7.01
2023-02-11T11:03:05.967Z,7.01
2023-02-11T11:06:12.757Z,6.99
2023-02-11T11:09:20.537Z,6.99
2023-02-11T11:12:27.692Z,7.01
2023-02-11T11:15:34.790Z,7.01
2023-02-11T11:18:42.259Z,7.04
2023-02-11T11:21:49.073Z,7.07
2023-02-11T11:24:56.664Z,7.07
2023-02-11T11:28:04.123Z,7.05
2023-02-11T11:31:11.062Z,7.04
2023-02-11T11:34:18.574Z,7.05
2023-02-11T11:37:25.842Z,7.08
2023-02-11T11:40:33.142Z,7.12
2023-02-11T11:43:40.557Z,7.12
2023-02-11T11:46:48.136Z,7.12
2023-02-11T11:49:55.305Z,7.13
2023-02-11T11:53:02.212Z,7.16
2023-02-11T11:56:09.874Z,7.19
2023-02-11T11:59:17.124Z,7.20
2023-02-11T12:02:24.189Z,7.19
2023-02-11T12:05:31.890Z,7.24
2023-02-11T12:08:39.324Z,7.29
2023-02-11T12:11:46.406Z,7.32
2023-02-11T12:14:53.986Z,7.31
2023-02-11T12:18:01.139Z,7.31
2023-02-11T12:21:08.546Z,7.31
2023-02-11T12:24:17.416Z,7.31
2023-02-11T12:27:24.727Z,7.31
2023-02-11T12:30:31.793Z,7.32
2023-02-11T12:33:38.919Z,7.31
2023-02-11T12:36:46.781Z,7.29
2023-02-11T12:39:54.223Z,7.31
2023-02-11T12:43:02.707Z,7.35
2023-02-11T12:46:10.689Z,7.37
2023-02-11T12:49:17.464Z,7.40
2023-02-11T12:52:25.095Z,7.41
2023-02-11T12:55:32.807Z,7.44
2023-02-11T12:58:45.433Z,7.42
2023-02-11T13:01:43.021Z,7.44
2023-02-11T13:04:50.227Z,7.49
2023-02-11T13:07:57.740Z,7.45
2023-02-11T13:11:05.048Z,7.45
2023-02-11T13:14:12.263Z,7.49
2023-02-11T13:17:19.727Z,7.50
2023-02-11T13:20:27.185Z,7.50
2023-02-11T13:23:34.851Z,7.50
2023-02-11T13:26:42.454Z,7.52
2023-02-11T13:29:49.801Z,7.56
2023-02-11T13:32:57.691Z,7.58
2023-02-11T13:36:05.054Z,7.62
2023-02-11T13:39:12.263Z,7.62
2023-02-11T13:42:20.037Z,7.62
2023-02-11T13:45:27.019Z,7.63
2023-02-11T13:48:34.900Z,7.63
2023-02-11T13:51:42.463Z,7.63
2023-02-11T13:54:49.550Z,7.62
2023-02-11T13:57:57.131Z,7.63
2023-02-11T14:01:04.336Z,7.60
2023-02-11T14:04:11.753Z,7.60
2023-02-11T14:07:19.060Z,7.58
2023-02-11T14:10:26.728Z,7.58
2023-02-11T14:13:34.404Z,7.59
2023-02-11T14:16:41.920Z,7.59
2023-02-11T14:19:49.463Z,7.59
2023-02-11T14:22:56.636Z,7.59
2023-02-11T14:26:03.885Z,7.56
2023-02-11T14:29:11.657Z,7.56
2023-02-11T14:32:18.672Z,7.56
2023-02-11T14:35:26.315Z,7.55
2023-02-11T14:38:33.803Z,7.53
2023-02-11T14:41:40.666Z,7.52
2023-02-11T14:44:48.158Z,7.53
2023-02-11T14:47:56.685Z,7.53
2023-02-11T14:51:03.818Z,7.55
2023-02-11T14:54:11.316Z,7.53
2023-02-11T14:57:18.693Z,7.55
2023-02-11T15:00:26.045Z,7.55
2023-02-11T15:03:33.200Z,7.58
2023-02-11T15:06:40.876Z,7.55
2023-02-11T15:09:48.474Z,7.55
2023-02-11T15:12:55.437Z,7.55
2023-02-11T15:16:03.167Z,7.55
2023-02-11T15:19:10.861Z,7.55
2023-02-11T15:22:17.863Z,7.56
2023-02-11T15:25:25.683Z,7.56
2023-02-11T15:28:33.104Z,7.56
2023-02-11T15:31:40.750Z,7.58
2023-02-11T15:34:49.014Z,7.58
2023-02-11T15:37:56.608Z,7.58
2023-02-11T15:41:04.274Z,7.59
2023-02-11T15:44:12.311Z,7.60
2023-02-11T15:47:19.508Z,7.62
2023-02-11T15:50:26.910Z,7.59
2023-02-11T15:53:34.107Z,7.60
2023-02-11T15:56:41.400Z,7.60
2023-02-11T15:59:48.577Z,7.60
2023-02-11T16:02:56.160Z,7.59
2023-02-11T16:06:03.523Z,7.59
2023-02-11T16:09:10.917Z,7.59
2023-02-11T16:12:18.472Z,7.58
2023-02-11T16:15:25.394Z,7.56
2023-02-11T16:18:38.468Z,7.55
2023-02-11T16:21:36.805Z,7.53
2023-02-11T16:24:43.885Z,7.53
2023-02-11T16:27:51.754Z,7.53
2023-02-11T16:31:02.400Z,7.55
2023-02-11T16:34:10.215Z,7.55
2023-02-11T16:37:17.950Z,7.55
2023-02-11T16:40:25.420Z,7.55
2023-02-11T16:43:32.803Z,7.56
2023-02-11T16:46:40.622Z,7.56
2023-02-11T16:49:47.818Z,7.56
2023-02-11T16:52:55.404Z,7.56
2023-02-11T16:56:02.546Z,7.58
2023-02-11T16:59:09.588Z,7.56
2023-02-11T17:02:16.819Z,7.56
2023-02-11T17:05:23.834Z,7.59
2023-02-11T17:08:31.222Z,7.60
2023-02-11T17:11:38.618Z,7.62
2023-02-11T17:14:46.793Z,7.60
2023-02-11T17:17:54.451Z,7.60
2023-02-11T17:21:01.645Z,7.60
2023-02-11T17:24:08.725Z,7.59
2023-02-11T17:27:16.270Z,7.59
2023-02-11T17:30:23.168Z,7.62
2023-02-11T17:33:30.798Z,7.60
2023-02-11T17:36:39.780Z,7.59
2023-02-11T17:39:47.015Z,7.55
2023-02-11T17:42:54.317Z,7.55
2023-02-11T17:46:02.628Z,7.52
2023-02-11T17:49:10.617Z,7.52
2023-02-11T17:52:17.993Z,7.50
2023-02-11T17:55:25.726Z,7.50
2023-02-11T17:58:33.048Z,7.50
2023-02-11T18:01:41.087Z,7.50
2023-02-11T18:04:49.149Z,7.53
2023-02-11T18:07:57.048Z,7.52
2023-02-11T18:11:05.003Z,7.49
2023-02-11T18:14:12.455Z,7.50
2023-02-11T18:17:20.101Z,7.49
2023-02-11T18:20:27.709Z,7.47
2023-02-11T18:23:36.543Z,7.47
2023-02-11T18:26:44.651Z,7.49
2023-02-11T18:29:51.995Z,7.49
2023-02-11T18:32:59.890Z,7.49
2023-02-11T18:36:07.714Z,7.50
2023-02-11T18:39:15.048Z,7.50
2023-02-11T18:42:22.832Z,7.52
2023-02-11T18:45:30.833Z,7.52
2023-02-11T18:48:37.966Z,7.53
2023-02-11T18:51:46.153Z,7.53
2023-02-11T18:54:53.754Z,7.53
2023-02-11T18:58:01.310Z,7.55
2023-02-11T19:01:09.854Z,7.58
2023-02-11T19:04:17.511Z,7.58
2023-02-11T19:07:25.379Z,7.58
2023-02-11T19:10:33.017Z,7.58
2023-02-11T19:13:41.438Z,7.56
2023-02-11T19:16:49.518Z,7.59
2023-02-11T19:19:57.183Z,7.59
2023-02-11T19:23:04.801Z,7.56
2023-02-11T19:26:12.561Z,7.58
2023-02-11T19:29:19.912Z,7.59
2023-02-11T19:32:27.744Z,7.60
2023-02-11T19:35:35.284Z,7.60
2023-02-11T19:38:42.479Z,7.58
2023-02-11T19:41:50.037Z,7.59
2023-02-11T19:44:58.662Z,7.59
2023-02-11T19:48:06.869Z,7.59
2023-02-11T19:51:15.074Z,7.59
2023-02-11T19:54:22.135Z,7.59
2023-02-11T19:57:31.086Z,7.59
2023-02-11T20:00:39.293Z,7.58
2023-02-11T20:03:46.842Z,7.58
2023-02-11T20:06:54.634Z,7.58
2023-02-11T20:10:02.769Z,7.56
2023-02-11T20:13:10.610Z,7.58
2023-02-11T20:16:19.224Z,7.58
2023-02-11T20:19:27.280Z,7.56
2023-02-11T20:22:34.375Z,7.58
2023-02-11T20:25:42.215Z,7.59
2023-02-11T20:28:49.997Z,7.59
2023-02-11T20:31:57.325Z,7.59
2023-02-11T20:35:04.942Z,7.59
2023-02-11T20:38:12.392Z,7.58
2023-02-11T20:41:19.836Z,7.56
2023-02-11T20:44:27.549Z,7.58
2023-02-11T20:47:35.077Z,7.58
2023-02-11T20:50:42.600Z,7.58
2023-02-11T20:53:49.839Z,7.59
2023-02-11T20:56:57.643Z,7.59
2023-02-11T21:00:04.951Z,7.59
2023-02-11T21:03:11.998Z,7.58
2023-02-11T21:06:20.161Z,7.56
2023-02-11T21:09:28.598Z,7.56
2023-02-11T21:12:35.783Z,7.59
2023-02-11T21:15:43.366Z,7.60
2023-02-11T21:18:51.054Z,7.62
2023-02-11T21:21:58.056Z,7.60
2023-02-11T21:25:05.338Z,7.59
2023-02-11T21:28:12.420Z,7.58
2023-02-11T21:31:19.670Z,7.59
2023-02-11T21:34:27.075Z,7.59
2023-02-11T21:37:34.016Z,7.59
2023-02-11T21:40:41.084Z,7.59
2023-02-11T21:43:48.176Z,7.59
2023-02-11T21:46:55.441Z,7.59
2023-02-11T21:50:02.671Z,7.58
2023-02-11T21:53:10.271Z,7.59
2023-02-11T21:56:17.675Z,7.59
2023-02-11T21:59:24.801Z,7.59
2023-02-11T22:02:31.926Z,7.59
2023-02-11T22:05:39.381Z,7.58
2023-02-11T22:08:46.303Z,7.59
2023-02-11T22:11:53.917Z,7.59
2023-02-11T22:15:01.417Z,7.59
2023-02-11T22:18:08.253Z,7.58
2023-02-11T22:21:15.948Z,7.56
2023-02-11T22:24:23.095Z,7.58
2023-02-11T22:27:30.322Z,7.56
2023-02-11T22:30:38.169Z,7.56
2023-02-11T22:33:45.252Z,7.58
2023-02-11T22:36:52.625Z,7.56
2023-02-11T22:40:00.121Z,7.55
2023-02-11T22:43:07.071Z,7.55
2023-02-11T22:46:14.565Z,7.56
2023-02-11T22:49:22.244Z,7.56
2023-02-11T22:52:29.303Z,7.58
2023-02-11T22:55:36.794Z,7.55
2023-02-11T22:58:44.572Z,7.56
2023-02-11T23:01:51.512Z,7.56
2023-02-11T23:04:59.223Z,7.58
2023-02-11T23:08:06.383Z,7.56
2023-02-11T23:11:13.696Z,7.56
2023-02-11T23:14:21.150Z,7.56
2023-02-11T23:17:28.207Z,7.58
2023-02-11T23:20:35.883Z,7.58
2023-02-11T23:23:43.206Z,7.58
2023-02-11T23:26:50.498Z,7.58
2023-02-11T23:29:58.015Z,7.56
2023-02-11T23:33:05.396Z,7.56
2023-02-11T23:36:12.962Z,7.56
2023-02-11T23:39:20.011Z,7.53
2023-02-11T23:42:27.045Z,7.56
2023-02-11T23:45:34.666Z,7.55
2023-02-11T23:48:42.186Z,7.56
2023-02-11T23:51:49.169Z,7.53
2023-02-11T23:54:56.844Z,7.55
2023-02-11T23:58:04.294Z,7.53
